createdAt,value
2018-06-15T00:00:57.010Z,101679.75
2018-06-15T00:03:25.799Z,101678.00
2018-06-15T00:05:54.540Z,101673.70
2018-06-15T00:08:23.199Z,101673.78
2018-06-15T00:10:51.931Z,101686.55
2018-06-15T00:13:21.006Z,101679.71
2018-06-15T00:15:49.732Z,101683.16
2018-06-15T00:18:18.305Z,101680.09
2018-06-15T00:20:47.159Z,101674.58
2018-06-15T00:23:16.163Z,101682.24
2018-06-15T00:25:44.972Z,101685.18
2018-06-15T00:28:13.751Z,101686.64
2018-06-15T00:30:42.531Z,101690.97
2018-06-15T00:33:11.163Z,101691.01
2018-06-15T00:35:39.789Z,101686.71
2018-06-15T00:38:08.844Z,101690.53
2018-06-15T00:40:37.486Z,101684.95
2018-06-15T00:43:06.551Z,101693.45
2018-06-15T00:45:41.724Z,101687.22
2018-06-15T00:48:10.461Z,101682.20
2018-06-15T00:50:39.227Z,101689.36
2018-06-15T00:53:07.999Z,101685.09
2018-06-15T00:55:36.811Z,101684.05
2018-06-15T00:58:05.590Z,101681.00
2018-06-15T01:00:34.372Z,101688.13
2018-06-15T01:03:03.163Z,101682.13
2018-06-15T01:05:31.948Z,101686.20
2018-06-15T01:08:00.570Z,101683.73
2018-06-15T01:10:29.202Z,101685.94
2018-06-15T01:12:57.959Z,101680.64
2018-06-15T01:15:26.537Z,101688.57
2018-06-15T01:17:55.159Z,101687.84
2018-06-15T01:20:24.284Z,101688.57
2018-06-15T01:22:53.327Z,101687.70
2018-06-15T01:25:22.058Z,101690.38
2018-06-15T01:27:50.877Z,101685.20
2018-06-15T01:30:19.869Z,101684.59
2018-06-15T01:32:49.019Z,101686.29
2018-06-15T01:35:18.092Z,101688.30
2018-06-15T01:37:46.872Z,101689.53
2018-06-15T01:40:15.442Z,101684.97
2018-06-15T01:42:44.247Z,101685.11
2018-06-15T01:45:19.444Z,101685.34
2018-06-15T01:47:48.235Z,101688.63
2018-06-15T01:50:16.975Z,101692.70
2018-06-15T01:52:45.743Z,101687.05
2018-06-15T01:55:14.527Z,101682.59
2018-06-15T01:57:43.330Z,101671.36
2018-06-15T02:00:11.966Z,101679.61
2018-06-15T02:02:41.205Z,101681.12
2018-06-15T02:05:10.000Z,101684.27
2018-06-15T02:07:38.807Z,101680.14
2018-06-15T02:10:07.751Z,101681.74
2018-06-15T02:12:37.064Z,101681.27
2018-06-15T02:15:05.988Z,101672.95
2018-06-15T02:17:34.618Z,101673.71
2018-06-15T02:20:03.499Z,101682.54
2018-06-15T02:22:32.267Z,101680.73
2018-06-15T02:25:00.843Z,101682.95
2018-06-15T02:27:29.457Z,101686.72
2018-06-15T02:29:58.231Z,101687.95
2018-06-15T02:32:27.432Z,101696.20
2018-06-15T02:34:56.186Z,101691.56
2018-06-15T02:37:25.216Z,101689.36
2018-06-15T02:39:54.254Z,101696.05
2018-06-15T02:42:23.003Z,101698.06
2018-06-15T02:44:51.842Z,101695.80
2018-06-15T02:47:20.619Z,101704.70
2018-06-15T02:49:49.399Z,101706.25
2018-06-15T02:52:18.134Z,101705.90
2018-06-15T02:54:47.507Z,101710.55
2018-06-15T02:57:16.168Z,101714.07
2018-06-15T02:59:44.957Z,101713.58
2018-06-15T03:02:13.722Z,101713.82
2018-06-15T03:04:42.517Z,101719.09
2018-06-15T03:07:11.268Z,101720.94
2018-06-15T03:09:40.104Z,101724.92
2018-06-15T03:12:08.860Z,101725.43
2018-06-15T03:14:37.861Z,101726.00
2018-06-15T03:17:06.613Z,101732.13
2018-06-15T03:19:35.351Z,101729.83
2018-06-15T03:22:04.204Z,101735.61
2018-06-15T03:24:32.991Z,101731.42
2018-06-15T03:27:01.740Z,101735.34
2018-06-15T03:29:30.762Z,101741.77
2018-06-15T03:31:59.540Z,101737.28
2018-06-15T03:34:28.618Z,101742.41
2018-06-15T03:36:57.432Z,101739.44
2018-06-15T03:39:26.200Z,101744.80
2018-06-15T03:41:55.004Z,101750.95
2018-06-15T03:44:23.753Z,101742.28
2018-06-15T03:46:52.587Z,101745.95
2018-06-15T03:49:21.364Z,101746.58
2018-06-15T03:51:50.139Z,101755.27
2018-06-15T03:54:18.870Z,101757.62
2018-06-15T03:56:47.620Z,101758.95
2018-06-15T03:59:16.695Z,101760.10
2018-06-15T04:01:45.279Z,101764.55
2018-06-15T04:04:13.914Z,101762.78
2018-06-15T04:06:42.655Z,101761.85
2018-06-15T04:09:11.438Z,101761.67
2018-06-15T04:11:40.509Z,101773.53
2018-06-15T04:14:09.284Z,101773.76
2018-06-15T04:16:38.351Z,101776.48
2018-06-15T04:19:07.168Z,101777.97
2018-06-15T04:21:35.924Z,101780.44
2018-06-15T04:24:04.762Z,101779.81
2018-06-15T04:26:33.811Z,101777.71
2018-06-15T04:29:02.668Z,101789.18
2018-06-15T04:31:31.477Z,101793.42
2018-06-15T04:34:00.340Z,101798.61
2018-06-15T04:36:29.124Z,101794.92
2018-06-15T04:38:57.921Z,101800.22
2018-06-15T04:41:26.987Z,101802.05
2018-06-15T04:43:55.782Z,101799.06
2018-06-15T04:46:24.546Z,101804.23
2018-06-15T04:48:53.684Z,101807.07
2018-06-15T04:51:22.413Z,101806.09
2018-06-15T04:53:50.981Z,101796.52
2018-06-15T04:56:19.812Z,101797.70
2018-06-15T04:58:48.601Z,101802.80
2018-06-15T05:01:25.248Z,101803.14
2018-06-15T05:03:55.505Z,101802.47
2018-06-15T05:06:30.339Z,101808.97
2018-06-15T05:08:59.119Z,101806.75
2018-06-15T05:11:34.399Z,101813.37
2018-06-15T05:14:03.203Z,101811.94
2018-06-15T05:16:31.944Z,101812.70
2018-06-15T05:19:01.081Z,101819.11
2018-06-15T05:21:29.906Z,101817.87
2018-06-15T05:23:58.498Z,101820.39
2018-06-15T05:26:27.303Z,101821.25
2018-06-15T05:28:56.603Z,101827.77
2018-06-15T05:31:25.695Z,101824.08
2018-06-15T05:33:54.838Z,101823.34
2018-06-15T05:36:23.571Z,101825.40
2018-06-15T05:38:52.189Z,101831.13
2018-06-15T05:41:20.944Z,101835.87
2018-06-15T05:43:50.139Z,101837.53
2018-06-15T05:46:18.932Z,101836.87
2018-06-15T05:48:53.596Z,101833.17
2018-06-15T05:51:28.540Z,101838.41
2018-06-15T05:54:03.410Z,101835.40
2018-06-15T05:56:32.075Z,101833.31
2018-06-15T05:59:00.911Z,101842.08
2018-06-15T06:01:34.851Z,101832.39
2018-06-15T06:04:03.808Z,101840.14
2018-06-15T06:06:32.555Z,101835.50
2018-06-15T06:09:01.646Z,101835.86
2018-06-15T06:11:30.388Z,101847.95
2018-06-15T06:13:59.012Z,101845.30
2018-06-15T06:16:27.742Z,101850.98
2018-06-15T06:18:56.734Z,101852.80
2018-06-15T06:21:25.591Z,101854.63
2018-06-15T06:23:54.412Z,101859.89
2018-06-15T06:26:23.182Z,101868.42
2018-06-15T06:28:51.948Z,101863.59
2018-06-15T06:31:21.143Z,101871.52
2018-06-15T06:33:49.763Z,101867.32
2018-06-15T06:36:18.564Z,101867.61
2018-06-15T06:38:53.369Z,101866.89
2018-06-15T06:41:21.998Z,101872.80
2018-06-15T06:43:50.765Z,101871.59
2018-06-15T06:46:25.703Z,101882.35
2018-06-15T06:48:54.831Z,101874.78
2018-06-15T06:51:23.654Z,101878.73
2018-06-15T06:53:52.464Z,101876.67
2018-06-15T06:56:21.220Z,101879.45
2018-06-15T06:58:51.107Z,101878.05
2018-06-15T07:01:20.016Z,101881.64
2018-06-15T07:03:48.815Z,101885.20
2018-06-15T07:06:17.663Z,101882.36
2018-06-15T07:08:46.395Z,101881.16
2018-06-15T07:11:15.220Z,101877.55
2018-06-15T07:13:43.991Z,101882.84
2018-06-15T07:16:12.807Z,101879.41
2018-06-15T07:18:41.563Z,101883.75
2018-06-15T07:21:10.347Z,101881.73
2018-06-15T07:23:39.126Z,101883.83
2018-06-15T07:26:08.233Z,101883.52
2018-06-15T07:28:37.075Z,101883.95
2018-06-15T07:31:05.887Z,101888.55
2018-06-15T07:33:34.505Z,101887.49
2018-06-15T07:36:03.351Z,101882.53
2018-06-15T07:38:32.104Z,101889.47
2018-06-15T07:41:00.951Z,101880.59
2018-06-15T07:43:29.597Z,101880.69
2018-06-15T07:45:58.430Z,101882.33
2018-06-15T07:48:27.198Z,101880.61
2018-06-15T07:50:56.041Z,101876.41
2018-06-15T07:53:24.925Z,101872.45
2018-06-15T07:55:53.664Z,101872.07
2018-06-15T07:58:24.075Z,101869.97
2018-06-15T08:00:53.148Z,101870.44
2018-06-15T08:03:21.891Z,101870.98
2018-06-15T08:05:50.771Z,101872.67
2018-06-15T08:08:19.576Z,101877.58
2018-06-15T08:10:48.431Z,101870.39
2018-06-15T08:13:17.192Z,101869.53
2018-06-15T08:15:46.147Z,101882.55
2018-06-15T08:18:15.007Z,101889.05
2018-06-15T08:20:43.946Z,101885.07
2018-06-15T08:23:12.767Z,101878.84
2018-06-15T08:25:41.535Z,101882.30
2018-06-15T08:28:10.339Z,101883.86
2018-06-15T08:30:39.148Z,101881.85
2018-06-15T08:33:08.095Z,101881.61
2018-06-15T08:35:36.694Z,101888.84
2018-06-15T08:38:05.531Z,101886.41
2018-06-15T08:40:34.353Z,101888.38
2018-06-15T08:43:03.204Z,101883.30
2018-06-15T08:45:38.199Z,101888.25
2018-06-15T08:48:06.978Z,101883.19
2018-06-15T08:50:36.503Z,101887.78
2018-06-15T08:53:05.453Z,101886.61
2018-06-15T08:55:34.259Z,101894.25
2018-06-15T08:58:02.926Z,101891.75
2018-06-15T09:00:31.692Z,101890.97
2018-06-15T09:03:00.578Z,101896.73
2018-06-15T09:05:29.750Z,101893.39
2018-06-15T09:07:58.496Z,101895.39
2018-06-15T09:10:27.308Z,101888.89
2018-06-15T09:12:56.068Z,101895.20
2018-06-15T09:15:24.896Z,101884.04
2018-06-15T09:17:54.057Z,101883.67
2018-06-15T09:20:22.831Z,101882.05
2018-06-15T09:22:51.634Z,101884.27
2018-06-15T09:25:20.475Z,101877.22
2018-06-15T09:27:49.458Z,101881.22
2018-06-15T09:30:18.288Z,101886.04
2018-06-15T09:32:47.123Z,101887.59
2018-06-15T09:35:16.201Z,101889.50
2018-06-15T09:37:45.074Z,101890.63
2018-06-15T09:40:13.879Z,101887.26
2018-06-15T09:42:42.676Z,101887.48
2018-06-15T09:45:17.362Z,101889.32
2018-06-15T09:47:46.136Z,101889.65
2018-06-15T09:50:14.932Z,101886.32
2018-06-15T09:52:43.753Z,101886.73
2018-06-15T09:55:12.553Z,101885.27
2018-06-15T09:57:41.347Z,101889.81
2018-06-15T10:00:10.243Z,101889.20
2018-06-15T10:02:39.011Z,101889.51
2018-06-15T10:05:07.789Z,101888.31
2018-06-15T10:07:36.543Z,101884.77
2018-06-15T10:10:05.162Z,101886.23
2018-06-15T10:12:34.056Z,101890.45
2018-06-15T10:15:02.877Z,101886.86
2018-06-15T10:17:31.796Z,101885.56
2018-06-15T10:20:00.448Z,101887.63
2018-06-15T10:22:29.229Z,101883.56
2018-06-15T10:24:57.976Z,101889.67
2018-06-15T10:27:26.762Z,101884.80
2018-06-15T10:29:55.592Z,101886.23
2018-06-15T10:32:24.360Z,101876.97
2018-06-15T10:34:53.267Z,101884.78
2018-06-15T10:37:22.104Z,101877.49
2018-06-15T10:39:50.939Z,101874.33
2018-06-15T10:42:20.163Z,101870.69
2018-06-15T10:44:48.977Z,101869.72
2018-06-15T10:47:17.755Z,101872.25
2018-06-15T10:49:46.576Z,101872.03
2018-06-15T10:52:15.199Z,101875.73
2018-06-15T10:54:44.099Z,101869.96
2018-06-15T10:57:12.879Z,101873.92
2018-06-15T10:59:41.672Z,101874.34
2018-06-15T11:02:10.495Z,101865.95
2018-06-15T11:04:39.259Z,101869.72
2018-06-15T11:07:08.172Z,101863.78
2018-06-15T11:09:36.932Z,101865.80
2018-06-15T11:12:06.176Z,101862.20
2018-06-15T11:14:34.949Z,101857.38
2018-06-15T11:17:03.768Z,101860.05
2018-06-15T11:19:32.618Z,101861.05
2018-06-15T11:22:01.452Z,101855.53
2018-06-15T11:24:30.264Z,101863.66
2018-06-15T11:26:59.048Z,101860.31
2018-06-15T11:29:27.685Z,101859.02
2018-06-15T11:31:56.466Z,101851.08
2018-06-15T11:34:25.270Z,101851.94
2018-06-15T11:36:54.062Z,101850.97
2018-06-15T11:39:23.299Z,101849.74
2018-06-15T11:41:51.922Z,101852.23
2018-06-15T11:44:20.744Z,101848.38
2018-06-15T11:46:49.507Z,101848.50
2018-06-15T11:49:18.619Z,101853.63
2018-06-15T11:51:47.670Z,101851.07
2018-06-15T11:54:16.476Z,101841.78
2018-06-15T11:56:45.421Z,101843.81
2018-06-15T11:59:14.467Z,101845.34
2018-06-15T12:01:43.499Z,101843.94
2018-06-15T12:04:12.351Z,101845.73
2018-06-15T12:06:41.125Z,101849.38
2018-06-15T12:09:10.420Z,101845.64
2018-06-15T12:11:39.010Z,101851.91
2018-06-15T12:14:07.796Z,101848.20
2018-06-15T12:16:36.605Z,101850.42
2018-06-15T12:19:05.821Z,101842.65
2018-06-15T12:21:34.640Z,101844.70
2018-06-15T12:24:03.408Z,101846.70
2018-06-15T12:26:32.215Z,101848.42
2018-06-15T12:29:00.973Z,101853.91
2018-06-15T12:31:29.786Z,101848.62
2018-06-15T12:33:58.895Z,101850.45
2018-06-15T12:36:27.697Z,101852.90
2018-06-15T12:38:56.490Z,101847.41
2018-06-15T12:41:25.308Z,101848.52
2018-06-15T12:43:54.056Z,101842.30
2018-06-15T12:46:22.916Z,101847.57
2018-06-15T12:48:51.970Z,101848.13
2018-06-15T12:51:20.654Z,101842.23
2018-06-15T12:53:49.383Z,101842.02
2018-06-15T12:56:18.179Z,101837.23
2018-06-15T12:58:46.904Z,101840.58
2018-06-15T13:01:15.988Z,101832.21
2018-06-15T13:03:44.800Z,101841.21
2018-06-15T13:06:13.426Z,101833.98
2018-06-15T13:08:42.266Z,101830.27
2018-06-15T13:11:11.060Z,101830.52
2018-06-15T13:13:39.867Z,101828.13
2018-06-15T13:16:08.534Z,101833.00
2018-06-15T13:18:37.312Z,101828.47
2018-06-15T13:21:06.132Z,101826.02
2018-06-15T13:23:35.313Z,101824.37
2018-06-15T13:26:04.611Z,101827.86
2018-06-15T13:28:33.375Z,101826.27
2018-06-15T13:31:02.188Z,101835.17
2018-06-15T13:33:31.215Z,101832.21
2018-06-15T13:36:00.379Z,101828.47
2018-06-15T13:38:29.172Z,101832.06
2018-06-15T13:40:57.955Z,101827.41
2018-06-15T13:43:27.352Z,101831.94
2018-06-15T13:45:58.181Z,101818.80
2018-06-15T13:48:27.070Z,101822.49
2018-06-15T13:50:56.180Z,101817.05
2018-06-15T13:53:24.954Z,101814.00
2018-06-15T13:55:53.768Z,101811.95
2018-06-15T13:58:22.512Z,101814.05
2018-06-15T14:00:51.387Z,101817.97
2018-06-15T14:03:20.187Z,101822.47
2018-06-15T14:05:48.984Z,101817.82
2018-06-15T14:08:17.739Z,101813.95
2018-06-15T14:10:46.397Z,101816.11
2018-06-15T14:13:15.207Z,101816.64
2018-06-15T14:15:44.046Z,101817.31
2018-06-15T14:18:12.844Z,101817.59
2018-06-15T14:20:41.663Z,101817.30
2018-06-15T14:23:11.012Z,101809.77
2018-06-15T14:25:39.933Z,101815.09
2018-06-15T14:28:08.797Z,101819.68
2018-06-15T14:30:37.597Z,101816.08
2018-06-15T14:33:06.425Z,101816.63
2018-06-15T14:35:35.269Z,101810.09
2018-06-15T14:38:04.104Z,101815.17
2018-06-15T14:40:33.069Z,101814.21
2018-06-15T14:43:01.655Z,101810.45
2018-06-15T14:45:36.595Z,101803.70
2018-06-15T14:48:05.528Z,101804.83
2018-06-15T14:50:34.269Z,101803.59
2018-06-15T14:53:03.074Z,101802.19
2018-06-15T14:55:32.180Z,101802.33
2018-06-15T14:58:01.296Z,101807.63
2018-06-15T15:00:30.172Z,101804.95
2018-06-15T15:02:58.944Z,101802.75
2018-06-15T15:05:28.119Z,101803.65
2018-06-15T15:07:57.354Z,101795.28
2018-06-15T15:10:26.155Z,101803.61
2018-06-15T15:12:55.900Z,101805.28
2018-06-15T15:15:24.872Z,101807.91
2018-06-15T15:17:53.606Z,101802.09
2018-06-15T15:20:22.428Z,101796.08
2018-06-15T15:22:51.240Z,101801.34
2018-06-15T15:25:20.096Z,101794.36
2018-06-15T15:27:48.840Z,101795.16
2018-06-15T15:30:17.789Z,101794.67
2018-06-15T15:32:46.540Z,101792.94
2018-06-15T15:35:15.271Z,101790.44
2018-06-15T15:37:44.529Z,101795.97
2018-06-15T15:40:13.527Z,101788.12
2018-06-15T15:42:42.267Z,101785.00
2018-06-15T15:45:17.287Z,101793.85
2018-06-15T15:47:45.939Z,101796.27
2018-06-15T15:50:14.690Z,101789.70
2018-06-15T15:52:43.760Z,101783.75
2018-06-15T15:55:12.516Z,101786.58
2018-06-15T15:57:41.276Z,101780.77
2018-06-15T16:00:10.688Z,101776.33
2018-06-15T16:02:39.304Z,101766.84
2018-06-15T16:05:08.082Z,101766.87
2018-06-15T16:07:37.131Z,101769.31
2018-06-15T16:10:05.944Z,101771.67
2018-06-15T16:12:34.763Z,101766.75
2018-06-15T16:15:03.792Z,101766.72
2018-06-15T16:17:32.539Z,101763.95
2018-06-15T16:20:01.328Z,101766.72
2018-06-15T16:22:30.268Z,101767.55
2018-06-15T16:24:59.074Z,101764.16
2018-06-15T16:27:27.851Z,101765.95
2018-06-15T16:29:57.045Z,101766.91
2018-06-15T16:32:26.166Z,101771.98
2018-06-15T16:34:54.934Z,101761.77
2018-06-15T16:37:23.987Z,101769.41
2018-06-15T16:39:52.755Z,101766.80
2018-06-15T16:42:21.524Z,101767.59
2018-06-15T16:44:50.601Z,101760.78
2018-06-15T16:47:19.369Z,101759.66
2018-06-15T16:49:48.178Z,101763.24
2018-06-15T16:52:17.280Z,101767.12
2018-06-15T16:54:46.076Z,101763.06
2018-06-15T16:57:14.855Z,101766.41
2018-06-15T16:59:43.952Z,101761.84
2018-06-15T17:02:13.008Z,101771.47
2018-06-15T17:04:42.032Z,101765.59
2018-06-15T17:07:11.116Z,101761.67
2018-06-15T17:09:39.886Z,101760.12
2018-06-15T17:12:08.791Z,101764.84
2018-06-15T17:14:37.920Z,101763.28
2018-06-15T17:17:06.729Z,101758.26
2018-06-15T17:19:35.496Z,101759.67
2018-06-15T17:22:04.901Z,101757.90
2018-06-15T17:24:33.698Z,101757.64
2018-06-15T17:27:02.609Z,101760.95
2018-06-15T17:29:31.894Z,101758.17
2018-06-15T17:32:00.700Z,101763.47
2018-06-15T17:34:29.469Z,101767.96
2018-06-15T17:36:58.561Z,101763.73
2018-06-15T17:39:27.451Z,101760.14
2018-06-15T17:41:56.524Z,101765.31
2018-06-15T17:44:25.495Z,101766.20
2018-06-15T17:46:54.282Z,101771.86
2018-06-15T17:49:23.059Z,101768.20
2018-06-15T17:51:52.207Z,101769.95
2018-06-15T17:54:20.994Z,101765.09
2018-06-15T17:56:49.777Z,101771.28
2018-06-15T17:59:18.900Z,101770.52
2018-06-15T18:01:47.682Z,101770.70
2018-06-15T18:04:16.346Z,101769.48
2018-06-15T18:06:45.296Z,101770.83
2018-06-15T18:09:14.368Z,101769.97
2018-06-15T18:11:43.124Z,101766.20
2018-06-15T18:14:12.252Z,101767.22
2018-06-15T18:16:40.894Z,101769.52
2018-06-15T18:19:09.640Z,101773.86
2018-06-15T18:21:38.734Z,101770.77
2018-06-15T18:24:08.595Z,101776.15
2018-06-15T18:26:37.967Z,101772.29
2018-06-15T18:29:07.658Z,101773.75
2018-06-15T18:33:59.131Z,101784.45
2018-06-15T18:36:27.909Z,101777.47
2018-06-15T18:38:56.685Z,101773.16
2018-06-15T18:41:25.773Z,101773.51
2018-06-15T18:43:54.870Z,101776.49
2018-06-15T18:46:23.625Z,101778.85
2018-06-15T18:48:52.536Z,101775.64
2018-06-15T18:51:21.862Z,101767.28
2018-06-15T18:53:50.702Z,101770.12
2018-06-15T18:56:19.504Z,101771.45
2018-06-15T18:58:48.563Z,101769.56
2018-06-15T19:01:17.395Z,101769.59
2018-06-15T19:03:46.179Z,101774.41
2018-06-15T19:06:15.373Z,101772.43
2018-06-15T19:08:44.393Z,101770.84
2018-06-15T19:11:13.370Z,101773.23
2018-06-15T19:13:44.728Z,101770.31
2018-06-15T19:16:14.397Z,101764.42
2018-06-15T19:18:43.947Z,101762.45
2018-06-15T19:21:12.973Z,101769.80
2018-06-15T19:23:42.081Z,101765.13
2018-06-15T19:26:11.309Z,101762.56
2018-06-15T19:28:40.351Z,101757.24
2018-06-15T19:31:09.485Z,101769.73
2018-06-15T19:33:39.024Z,101763.61
2018-06-15T19:36:08.305Z,101773.10
2018-06-15T19:38:37.334Z,101772.69
2018-06-15T19:41:06.750Z,101776.06
2018-06-15T19:43:35.898Z,101772.13
2018-06-15T19:46:05.964Z,101778.45
2018-06-15T19:48:35.275Z,101776.66
2018-06-15T19:51:04.106Z,101778.27
2018-06-15T19:53:32.985Z,101779.03
2018-06-15T19:56:02.030Z,101775.49
2018-06-15T19:58:30.828Z,101781.00
2018-06-15T20:00:59.709Z,101785.36
2018-06-15T20:03:29.241Z,101782.10
2018-06-15T20:05:58.124Z,101786.84
2018-06-15T20:08:27.085Z,101787.40
2018-06-15T20:10:56.218Z,101788.56
2018-06-15T20:13:25.302Z,101787.73
2018-06-15T20:15:54.070Z,101788.29
2018-06-15T20:18:23.003Z,101788.89
2018-06-15T20:20:51.926Z,101782.37
2018-06-15T20:23:20.533Z,101774.23
2018-06-15T20:25:49.679Z,101778.56
2018-06-15T20:28:18.802Z,101769.26
2018-06-15T20:30:47.593Z,101764.52
2018-06-15T20:33:16.762Z,101762.71
2018-06-15T20:35:45.537Z,101766.66
2018-06-15T20:38:14.302Z,101764.09
2018-06-15T20:40:43.345Z,101759.93
2018-06-15T20:43:12.127Z,101755.17
2018-06-15T20:45:47.151Z,101753.99
2018-06-15T20:48:15.891Z,101755.34
2018-06-15T20:50:44.474Z,101755.64
2018-06-15T20:53:13.638Z,101752.07
2018-06-15T20:55:42.446Z,101745.89
2018-06-15T20:58:11.236Z,101743.67
2018-06-15T21:00:40.061Z,101743.22
2018-06-15T21:03:08.832Z,101740.72
2018-06-15T21:05:37.650Z,101744.51
2018-06-15T21:08:06.933Z,101738.96
2018-06-15T21:10:36.199Z,101743.48
2018-06-15T21:13:05.070Z,101747.49
2018-06-15T21:15:34.307Z,101747.87
2018-06-15T21:18:03.088Z,101746.20
2018-06-15T21:20:31.918Z,101747.70
2018-06-15T21:23:00.860Z,101748.50
2018-06-15T21:25:29.823Z,101743.22
2018-06-15T21:27:58.838Z,101744.55
2018-06-15T21:30:27.620Z,101740.88
2018-06-15T21:32:57.100Z,101745.11
2018-06-15T21:35:25.858Z,101737.23
2018-06-15T21:37:55.023Z,101736.82
2018-06-15T21:40:23.811Z,101743.91
2018-06-15T21:42:52.583Z,101736.75
2018-06-15T21:45:27.635Z,101732.00
2018-06-15T21:47:56.376Z,101741.42
2018-06-15T21:50:25.168Z,101732.26
2018-06-15T21:52:54.312Z,101735.66
2018-06-15T21:55:22.945Z,101737.42
2018-06-15T21:57:51.522Z,101728.70
2018-06-15T22:00:20.682Z,101730.55
2018-06-15T22:02:49.436Z,101729.17
2018-06-15T22:05:18.188Z,101729.11
2018-06-15T22:07:47.500Z,101725.77
2018-06-15T22:10:16.430Z,101724.45
2018-06-15T22:12:45.188Z,101728.11
2018-06-15T22:15:14.189Z,101730.91
2018-06-15T22:17:42.996Z,101728.40
2018-06-15T22:20:11.790Z,101735.08
2018-06-15T22:22:40.874Z,101736.48
2018-06-15T22:25:09.641Z,101735.97
2018-06-15T22:27:38.375Z,101737.06
2018-06-15T22:30:07.706Z,101737.86
2018-06-15T22:32:36.797Z,101741.17
2018-06-15T22:35:05.631Z,101736.09
2018-06-15T22:37:34.399Z,101732.86
2018-06-15T22:40:03.167Z,101730.94
2018-06-15T22:42:31.899Z,101730.59
2018-06-15T22:45:00.896Z,101734.04
2018-06-15T22:47:29.776Z,101738.25
2018-06-15T22:49:58.504Z,101730.90
2018-06-15T22:52:27.618Z,101734.78
2018-06-15T22:54:56.364Z,101732.27
2018-06-15T22:57:25.169Z,101728.69
2018-06-15T22:59:54.309Z,101730.90
2018-06-15T23:02:23.364Z,101728.98
2018-06-15T23:04:52.154Z,101739.51
2018-06-15T23:07:21.538Z,101734.50
2018-06-15T23:09:50.348Z,101735.80
2018-06-15T23:12:19.123Z,101732.11
2018-06-15T23:14:48.030Z,101734.06
2018-06-15T23:17:16.798Z,101732.95
2018-06-15T23:19:45.481Z,101733.68
2018-06-15T23:22:14.638Z,101733.91
2018-06-15T23:24:43.399Z,101730.73
2018-06-15T23:27:12.159Z,101733.30
2018-06-15T23:29:41.421Z,101737.81
2018-06-15T23:32:10.163Z,101742.86
2018-06-15T23:34:38.991Z,101745.37
2018-06-15T23:37:07.967Z,101744.80
2018-06-15T23:39:36.716Z,101747.63
2018-06-15T23:42:05.700Z,101744.84
2018-06-15T23:44:34.870Z,101746.64
2018-06-15T23:47:03.672Z,101740.32
2018-06-15T23:49:32.446Z,101743.41
2018-06-15T23:52:01.547Z,101737.42
2018-06-15T23:54:30.295Z,101744.03
2018-06-15T23:56:59.134Z,101736.77
2018-06-15T23:59:28.336Z,101734.87
